sensor_id;sensor_type;location;lat;lon;timestamp;P1;durP1;ratioP1;P2;durP2;ratioP2
40471;SDS011;26174;42.908;23.800;2022-08-25T00:00:00;19.33;;;11.80;;
40471;SDS011;26174;42.908;23.800;2022-08-25T00:02:26;22.55;;;12.25;;
40471;SDS011;26174;42.908;23.800;2022-08-25T00:04:52;23.48;;;12.25;;
40471;SDS011;26174;42.908;23.800;2022-08-25T00:07:18;26.38;;;12.73;;
40471;SDS011;26174;42.908;23.800;2022-08-25T00:09:44;30.95;;;12.25;;
40471;SDS011;26174;42.908;23.800;2022-08-25T00:12:11;31.35;;;13.30;;
40471;SDS011;26174;42.908;23.800;2022-08-25T00:14:36;29.33;;;12.68;;
40471;SDS011;26174;42.908;23.800;2022-08-25T00:17:03;27.67;;;12.48;;
40471;SDS011;26174;42.908;23.800;2022-08-25T00:19:31;23.40;;;12.52;;
40471;SDS011;26174;42.908;23.800;2022-08-25T00:21:58;22.50;;;12.95;;
40471;SDS011;26174;42.908;23.800;2022-08-25T00:24:24;30.50;;;13.30;;
40471;SDS011;26174;42.908;23.800;2022-08-25T00:26:52;22.52;;;12.30;;
40471;SDS011;26174;42.908;23.800;2022-08-25T00:29:19;20.08;;;12.30;;
40471;SDS011;26174;42.908;23.800;2022-08-25T00:31:46;29.88;;;13.25;;
40471;SDS011;26174;42.908;23.800;2022-08-25T00:34:14;23.50;;;11.93;;
40471;SDS011;26174;42.908;23.800;2022-08-25T00:36:41;29.40;;;12.13;;
40471;SDS011;26174;42.908;23.800;2022-08-25T00:39:08;28.92;;;13.98;;
40471;SDS011;26174;42.908;23.800;2022-08-25T00:41:34;27.95;;;13.15;;
40471;SDS011;26174;42.908;23.800;2022-08-25T00:44:02;21.25;;;13.23;;
40471;SDS011;26174;42.908;23.800;2022-08-25T00:46:32;22.55;;;12.63;;
40471;SDS011;26174;42.908;23.800;2022-08-25T00:49:04;28.33;;;13.27;;
40471;SDS011;26174;42.908;23.800;2022-08-25T00:51:39;25.20;;;13.95;;
40471;SDS011;26174;42.908;23.800;2022-08-25T00:54:07;24.88;;;13.50;;
40471;SDS011;26174;42.908;23.800;2022-08-25T00:56:40;28.92;;;13.60;;
40471;SDS011;26174;42.908;23.800;2022-08-25T00:59:06;26.08;;;14.45;;
40471;SDS011;26174;42.908;23.800;2022-08-25T01:01:32;24.65;;;13.30;;
40471;SDS011;26174;42.908;23.800;2022-08-25T01:03:57;27.15;;;13.43;;
40471;SDS011;26174;42.908;23.800;2022-08-25T01:06:23;23.92;;;13.30;;
40471;SDS011;26174;42.908;23.800;2022-08-25T01:08:49;23.45;;;14.27;;
40471;SDS011;26174;42.908;23.800;2022-08-25T01:11:16;23.90;;;12.98;;
40471;SDS011;26174;42.908;23.800;2022-08-25T01:13:42;24.60;;;13.27;;
40471;SDS011;26174;42.908;23.800;2022-08-25T01:16:12;29.63;;;14.00;;
40471;SDS011;26174;42.908;23.800;2022-08-25T01:18:50;24.80;;;14.23;;
40471;SDS011;26174;42.908;23.800;2022-08-25T01:21:21;26.40;;;13.77;;
40471;SDS011;26174;42.908;23.800;2022-08-25T01:23:49;24.10;;;13.10;;
40471;SDS011;26174;42.908;23.800;2022-08-25T01:26:20;23.75;;;13.57;;
40471;SDS011;26174;42.908;23.800;2022-08-25T01:28:48;32.80;;;13.55;;
40471;SDS011;26174;42.908;23.800;2022-08-25T01:31:33;30.73;;;13.05;;
40471;SDS011;26174;42.908;23.800;2022-08-25T01:36:45;23.60;;;13.00;;
40471;SDS011;26174;42.908;23.800;2022-08-25T01:39:11;23.20;;;12.80;;
40471;SDS011;26174;42.908;23.800;2022-08-25T01:44:13;27.23;;;13.32;;
40471;SDS011;26174;42.908;23.800;2022-08-25T01:46:40;19.42;;;13.07;;
40471;SDS011;26174;42.908;23.800;2022-08-25T01:49:05;27.05;;;13.30;;
40471;SDS011;26174;42.908;23.800;2022-08-25T01:51:33;23.33;;;12.95;;
40471;SDS011;26174;42.908;23.800;2022-08-25T01:54:03;25.50;;;13.40;;
40471;SDS011;26174;42.908;23.800;2022-08-25T01:56:29;28.13;;;13.00;;
40471;SDS011;26174;42.908;23.800;2022-08-25T01:58:55;30.30;;;13.77;;
40471;SDS011;26174;42.908;23.800;2022-08-25T02:01:21;24.63;;;13.73;;
40471;SDS011;26174;42.908;23.800;2022-08-25T02:03:49;25.65;;;13.45;;
40471;SDS011;26174;42.908;23.800;2022-08-25T02:06:23;29.65;;;13.68;;
40471;SDS011;26174;42.908;23.800;2022-08-25T02:08:58;22.73;;;13.10;;
40471;SDS011;26174;42.908;23.800;2022-08-25T02:11:25;27.58;;;13.00;;
40471;SDS011;26174;42.908;23.800;2022-08-25T02:13:52;25.75;;;13.43;;
40471;SDS011;26174;42.908;23.800;2022-08-25T02:16:20;25.08;;;13.60;;
40471;SDS011;26174;42.908;23.800;2022-08-25T02:18:52;27.02;;;14.55;;
40471;SDS011;26174;42.908;23.800;2022-08-25T02:21:18;26.40;;;13.57;;
40471;SDS011;26174;42.908;23.800;2022-08-25T02:23:44;25.25;;;13.30;;
40471;SDS011;26174;42.908;23.800;2022-08-25T02:26:10;21.33;;;14.05;;
40471;SDS011;26174;42.908;23.800;2022-08-25T02:28:36;23.63;;;13.88;;
40471;SDS011;26174;42.908;23.800;2022-08-25T02:31:03;27.20;;;12.45;;
40471;SDS011;26174;42.908;23.800;2022-08-25T02:33:29;25.48;;;13.98;;
40471;SDS011;26174;42.908;23.800;2022-08-25T02:36:01;28.02;;;13.85;;
40471;SDS011;26174;42.908;23.800;2022-08-25T02:38:27;30.77;;;13.55;;
40471;SDS011;26174;42.908;23.800;2022-08-25T02:40:54;30.70;;;13.05;;
40471;SDS011;26174;42.908;23.800;2022-08-25T02:43:22;30.33;;;14.05;;
40471;SDS011;26174;42.908;23.800;2022-08-25T02:45:50;33.55;;;13.65;;
40471;SDS011;26174;42.908;23.800;2022-08-25T02:48:16;25.88;;;13.57;;
40471;SDS011;26174;42.908;23.800;2022-08-25T02:50:45;25.48;;;13.65;;
40471;SDS011;26174;42.908;23.800;2022-08-25T02:53:16;26.85;;;14.48;;
40471;SDS011;26174;42.908;23.800;2022-08-25T02:55:43;27.85;;;14.10;;
40471;SDS011;26174;42.908;23.800;2022-08-25T02:58:09;28.95;;;14.30;;
40471;SDS011;26174;42.908;23.800;2022-08-25T03:00:35;24.42;;;13.57;;
40471;SDS011;26174;42.908;23.800;2022-08-25T03:03:01;26.95;;;13.27;;
40471;SDS011;26174;42.908;23.800;2022-08-25T03:05:27;23.92;;;12.55;;
40471;SDS011;26174;42.908;23.800;2022-08-25T03:07:53;30.85;;;13.77;;
40471;SDS011;26174;42.908;23.800;2022-08-25T03:10:18;21.77;;;13.48;;
40471;SDS011;26174;42.908;23.800;2022-08-25T03:12:45;31.73;;;14.90;;
40471;SDS011;26174;42.908;23.800;2022-08-25T03:15:12;26.90;;;14.60;;
40471;SDS011;26174;42.908;23.800;2022-08-25T03:17:41;27.27;;;14.32;;
40471;SDS011;26174;42.908;23.800;2022-08-25T03:20:07;27.27;;;14.82;;
40471;SDS011;26174;42.908;23.800;2022-08-25T03:22:33;30.88;;;15.88;;
40471;SDS011;26174;42.908;23.800;2022-08-25T03:25:00;27.42;;;15.15;;
40471;SDS011;26174;42.908;23.800;2022-08-25T03:27:46;31.25;;;15.77;;
40471;SDS011;26174;42.908;23.800;2022-08-25T03:30:13;28.50;;;15.77;;
40471;SDS011;26174;42.908;23.800;2022-08-25T03:32:40;29.33;;;15.38;;
40471;SDS011;26174;42.908;23.800;2022-08-25T03:35:06;33.95;;;16.08;;
40471;SDS011;26174;42.908;23.800;2022-08-25T03:37:32;39.60;;;15.95;;
40471;SDS011;26174;42.908;23.800;2022-08-25T03:39:58;28.45;;;16.58;;
40471;SDS011;26174;42.908;23.800;2022-08-25T03:42:24;38.05;;;18.95;;
40471;SDS011;26174;42.908;23.800;2022-08-25T03:44:50;34.92;;;17.50;;
40471;SDS011;26174;42.908;23.800;2022-08-25T03:47:16;25.58;;;14.73;;
40471;SDS011;26174;42.908;23.800;2022-08-25T03:49:41;27.48;;;15.95;;
40471;SDS011;26174;42.908;23.800;2022-08-25T03:52:07;33.78;;;16.27;;
40471;SDS011;26174;42.908;23.800;2022-08-25T03:54:32;34.78;;;17.17;;
40471;SDS011;26174;42.908;23.800;2022-08-25T03:56:58;35.40;;;17.13;;
40471;SDS011;26174;42.908;23.800;2022-08-25T03:59:24;37.13;;;18.67;;
40471;SDS011;26174;42.908;23.800;2022-08-25T04:01:51;33.65;;;15.15;;
40471;SDS011;26174;42.908;23.800;2022-08-25T04:04:17;29.13;;;16.00;;
40471;SDS011;26174;42.908;23.800;2022-08-25T04:06:42;28.92;;;15.93;;
40471;SDS011;26174;42.908;23.800;2022-08-25T04:09:09;33.22;;;15.68;;
40471;SDS011;26174;42.908;23.800;2022-08-25T04:11:35;33.03;;;15.70;;
40471;SDS011;26174;42.908;23.800;2022-08-25T04:14:01;34.03;;;15.77;;
40471;SDS011;26174;42.908;23.800;2022-08-25T04:16:29;37.40;;;16.58;;
40471;SDS011;26174;42.908;23.800;2022-08-25T04:18:57;38.15;;;18.45;;
40471;SDS011;26174;42.908;23.800;2022-08-25T04:21:24;26.42;;;14.57;;
40471;SDS011;26174;42.908;23.800;2022-08-25T04:23:50;28.05;;;14.43;;
40471;SDS011;26174;42.908;23.800;2022-08-25T04:26:19;45.67;;;14.27;;
40471;SDS011;26174;42.908;23.800;2022-08-25T04:28:56;31.33;;;14.45;;
40471;SDS011;26174;42.908;23.800;2022-08-25T04:31:22;22.48;;;13.52;;
40471;SDS011;26174;42.908;23.800;2022-08-25T04:33:48;25.38;;;13.63;;
40471;SDS011;26174;42.908;23.800;2022-08-25T04:36:14;33.03;;;14.75;;
40471;SDS011;26174;42.908;23.800;2022-08-25T04:38:42;26.33;;;15.43;;
40471;SDS011;26174;42.908;23.800;2022-08-25T04:41:09;29.85;;;14.50;;
40471;SDS011;26174;42.908;23.800;2022-08-25T04:43:36;58.58;;;27.52;;
40471;SDS011;26174;42.908;23.800;2022-08-25T04:46:13;32.13;;;14.02;;
40471;SDS011;26174;42.908;23.800;2022-08-25T04:48:41;32.90;;;15.40;;
40471;SDS011;26174;42.908;23.800;2022-08-25T04:51:08;37.92;;;15.20;;
40471;SDS011;26174;42.908;23.800;2022-08-25T04:53:35;27.65;;;13.52;;
40471;SDS011;26174;42.908;23.800;2022-08-25T04:56:04;33.10;;;14.98;;
40471;SDS011;26174;42.908;23.800;2022-08-25T04:58:31;28.23;;;13.73;;
40471;SDS011;26174;42.908;23.800;2022-08-25T05:01:04;26.23;;;13.63;;
40471;SDS011;26174;42.908;23.800;2022-08-25T05:03:30;26.33;;;13.27;;
40471;SDS011;26174;42.908;23.800;2022-08-25T05:05:56;29.70;;;13.45;;
40471;SDS011;26174;42.908;23.800;2022-08-25T05:08:22;20.30;;;12.52;;
40471;SDS011;26174;42.908;23.800;2022-08-25T05:10:48;25.73;;;12.68;;
40471;SDS011;26174;42.908;23.800;2022-08-25T05:13:14;23.67;;;12.95;;
40471;SDS011;26174;42.908;23.800;2022-08-25T05:15:40;38.60;;;22.23;;
40471;SDS011;26174;42.908;23.800;2022-08-25T05:18:15;33.05;;;20.10;;
40471;SDS011;26174;42.908;23.800;2022-08-25T05:20:41;27.27;;;11.98;;
40471;SDS011;26174;42.908;23.800;2022-08-25T05:23:07;36.22;;;20.42;;
40471;SDS011;26174;42.908;23.800;2022-08-25T05:25:32;43.38;;;20.42;;
40471;SDS011;26174;42.908;23.800;2022-08-25T05:27:58;31.98;;;15.48;;
40471;SDS011;26174;42.908;23.800;2022-08-25T05:30:24;27.65;;;12.20;;
40471;SDS011;26174;42.908;23.800;2022-08-25T05:32:49;33.30;;;18.30;;
40471;SDS011;26174;42.908;23.800;2022-08-25T05:35:18;34.53;;;15.10;;
40471;SDS011;26174;42.908;23.800;2022-08-25T05:37:44;28.92;;;15.50;;
40471;SDS011;26174;42.908;23.800;2022-08-25T05:40:10;29.02;;;13.65;;
40471;SDS011;26174;42.908;23.800;2022-08-25T05:42:36;31.75;;;12.50;;
40471;SDS011;26174;42.908;23.800;2022-08-25T05:45:03;33.38;;;12.13;;
40471;SDS011;26174;42.908;23.800;2022-08-25T05:47:29;25.70;;;10.65;;
40471;SDS011;26174;42.908;23.800;2022-08-25T05:49:54;22.38;;;10.10;;
40471;SDS011;26174;42.908;23.800;2022-08-25T05:52:20;26.67;;;10.70;;
40471;SDS011;26174;42.908;23.800;2022-08-25T05:57:41;28.83;;;10.30;;
40471;SDS011;26174;42.908;23.800;2022-08-25T06:00:07;18.35;;;11.25;;
40471;SDS011;26174;42.908;23.800;2022-08-25T06:02:33;26.30;;;11.32;;
40471;SDS011;26174;42.908;23.800;2022-08-25T06:05:11;22.70;;;10.38;;
40471;SDS011;26174;42.908;23.800;2022-08-25T06:07:45;24.95;;;10.18;;
40471;SDS011;26174;42.908;23.800;2022-08-25T06:10:11;18.25;;;9.82;;
40471;SDS011;26174;42.908;23.800;2022-08-25T06:12:37;20.95;;;13.15;;
40471;SDS011;26174;42.908;23.800;2022-08-25T06:15:05;23.05;;;9.98;;
40471;SDS011;26174;42.908;23.800;2022-08-25T06:17:31;18.70;;;9.35;;
40471;SDS011;26174;42.908;23.800;2022-08-25T06:19:58;23.90;;;9.43;;
40471;SDS011;26174;42.908;23.800;2022-08-25T06:22:24;24.48;;;14.65;;
40471;SDS011;26174;42.908;23.800;2022-08-25T06:24:50;33.03;;;17.35;;
40471;SDS011;26174;42.908;23.800;2022-08-25T06:27:16;24.33;;;8.63;;
40471;SDS011;26174;42.908;23.800;2022-08-25T06:32:37;22.35;;;8.60;;
40471;SDS011;26174;42.908;23.800;2022-08-25T06:35:04;17.02;;;8.05;;
40471;SDS011;26174;42.908;23.800;2022-08-25T06:37:31;18.00;;;7.93;;
40471;SDS011;26174;42.908;23.800;2022-08-25T06:39:59;17.02;;;9.27;;
40471;SDS011;26174;42.908;23.800;2022-08-25T06:42:25;17.40;;;8.52;;
40471;SDS011;26174;42.908;23.800;2022-08-25T06:44:51;13.98;;;7.82;;
40471;SDS011;26174;42.908;23.800;2022-08-25T06:47:17;17.70;;;9.02;;
40471;SDS011;26174;42.908;23.800;2022-08-25T06:49:42;25.30;;;7.93;;
40471;SDS011;26174;42.908;23.800;2022-08-25T06:52:08;17.65;;;8.82;;
40471;SDS011;26174;42.908;23.800;2022-08-25T06:54:34;21.00;;;7.78;;
40471;SDS011;26174;42.908;23.800;2022-08-25T06:57:00;18.17;;;8.25;;
40471;SDS011;26174;42.908;23.800;2022-08-25T06:59:26;21.05;;;8.13;;
40471;SDS011;26174;42.908;23.800;2022-08-25T07:01:52;19.00;;;7.40;;
40471;SDS011;26174;42.908;23.800;2022-08-25T07:04:17;25.13;;;7.22;;
40471;SDS011;26174;42.908;23.800;2022-08-25T07:06:43;14.43;;;7.40;;
40471;SDS011;26174;42.908;23.800;2022-08-25T07:09:10;15.95;;;7.63;;
40471;SDS011;26174;42.908;23.800;2022-08-25T07:11:36;21.83;;;8.32;;
40471;SDS011;26174;42.908;23.800;2022-08-25T07:14:04;19.92;;;8.27;;
40471;SDS011;26174;42.908;23.800;2022-08-25T07:16:30;19.48;;;8.20;;
40471;SDS011;26174;42.908;23.800;2022-08-25T07:18:58;15.02;;;7.82;;
40471;SDS011;26174;42.908;23.800;2022-08-25T07:21:24;15.80;;;7.20;;
40471;SDS011;26174;42.908;23.800;2022-08-25T07:23:51;16.98;;;7.53;;
40471;SDS011;26174;42.908;23.800;2022-08-25T07:26:18;12.70;;;7.35;;
40471;SDS011;26174;42.908;23.800;2022-08-25T07:28:45;18.05;;;6.00;;
40471;SDS011;26174;42.908;23.800;2022-08-25T07:31:11;30.05;;;7.47;;
40471;SDS011;26174;42.908;23.800;2022-08-25T07:33:37;25.85;;;5.15;;
40471;SDS011;26174;42.908;23.800;2022-08-25T07:36:23;14.65;;;5.57;;
40471;SDS011;26174;42.908;23.800;2022-08-25T07:38:49;20.27;;;5.43;;
40471;SDS011;26174;42.908;23.800;2022-08-25T07:41:15;13.90;;;4.95;;
40471;SDS011;26174;42.908;23.800;2022-08-25T07:43:41;18.00;;;5.00;;
40471;SDS011;26174;42.908;23.800;2022-08-25T07:46:07;20.60;;;5.18;;
40471;SDS011;26174;42.908;23.800;2022-08-25T07:48:32;20.63;;;6.28;;
40471;SDS011;26174;42.908;23.800;2022-08-25T07:50:58;26.65;;;5.22;;
40471;SDS011;26174;42.908;23.800;2022-08-25T07:53:23;26.42;;;5.95;;
40471;SDS011;26174;42.908;23.800;2022-08-25T07:55:49;17.23;;;5.47;;
40471;SDS011;26174;42.908;23.800;2022-08-25T07:58:15;14.48;;;5.05;;
40471;SDS011;26174;42.908;23.800;2022-08-25T08:00:40;13.48;;;4.97;;
40471;SDS011;26174;42.908;23.800;2022-08-25T08:03:07;16.48;;;8.43;;
40471;SDS011;26174;42.908;23.800;2022-08-25T08:05:33;18.42;;;5.43;;
40471;SDS011;26174;42.908;23.800;2022-08-25T08:08:01;23.38;;;6.53;;
40471;SDS011;26174;42.908;23.800;2022-08-25T08:10:27;27.40;;;5.10;;
40471;SDS011;26174;42.908;23.800;2022-08-25T08:12:52;22.95;;;6.60;;
40471;SDS011;26174;42.908;23.800;2022-08-25T08:15:18;23.33;;;5.72;;
40471;SDS011;26174;42.908;23.800;2022-08-25T08:17:44;22.25;;;5.35;;
40471;SDS011;26174;42.908;23.800;2022-08-25T08:20:10;19.65;;;5.13;;
40471;SDS011;26174;42.908;23.800;2022-08-25T08:22:37;20.60;;;5.82;;
40471;SDS011;26174;42.908;23.800;2022-08-25T08:25:05;18.05;;;5.00;;
40471;SDS011;26174;42.908;23.800;2022-08-25T08:27:31;24.38;;;5.38;;
40471;SDS011;26174;42.908;23.800;2022-08-25T08:29:57;23.42;;;4.70;;
40471;SDS011;26174;42.908;23.800;2022-08-25T08:32:23;26.98;;;5.18;;
40471;SDS011;26174;42.908;23.800;2022-08-25T08:34:48;32.30;;;4.38;;
40471;SDS011;26174;42.908;23.800;2022-08-25T08:37:14;27.58;;;4.95;;
40471;SDS011;26174;42.908;23.800;2022-08-25T08:39:40;27.83;;;5.25;;
40471;SDS011;26174;42.908;23.800;2022-08-25T08:52:48;20.48;;;5.35;;
40471;SDS011;26174;42.908;23.800;2022-08-25T08:57:51;27.13;;;8.32;;
40471;SDS011;26174;42.908;23.800;2022-08-25T09:00:19;30.38;;;7.43;;
40471;SDS011;26174;42.908;23.800;2022-08-25T09:02:50;21.77;;;4.60;;
40471;SDS011;26174;42.908;23.800;2022-08-25T09:05:49;22.83;;;4.15;;
40471;SDS011;26174;42.908;23.800;2022-08-25T09:08:17;27.15;;;4.13;;
40471;SDS011;26174;42.908;23.800;2022-08-25T09:11:04;26.27;;;5.32;;
40471;SDS011;26174;42.908;23.800;2022-08-25T09:16:29;27.52;;;5.25;;
40471;SDS011;26174;42.908;23.800;2022-08-25T09:32:14;33.35;;;8.68;;
40471;SDS011;26174;42.908;23.800;2022-08-25T09:34:41;27.35;;;5.07;;
40471;SDS011;26174;42.908;23.800;2022-08-25T09:37:06;27.92;;;4.93;;
40471;SDS011;26174;42.908;23.800;2022-08-25T09:39:32;29.30;;;4.38;;
40471;SDS011;26174;42.908;23.800;2022-08-25T09:41:58;35.35;;;5.20;;
40471;SDS011;26174;42.908;23.800;2022-08-25T09:44:43;15.98;;;4.30;;
40471;SDS011;26174;42.908;23.800;2022-08-25T09:50:01;19.67;;;4.63;;
40471;SDS011;26174;42.908;23.800;2022-08-25T09:57:44;40.80;;;9.43;;
40471;SDS011;26174;42.908;23.800;2022-08-25T10:05:33;20.10;;;4.28;;
40471;SDS011;26174;42.908;23.800;2022-08-25T10:08:03;23.35;;;5.32;;
40471;SDS011;26174;42.908;23.800;2022-08-25T10:10:37;27.13;;;5.95;;
40471;SDS011;26174;42.908;23.800;2022-08-25T10:13:12;25.17;;;4.05;;
40471;SDS011;26174;42.908;23.800;2022-08-25T10:15:40;17.70;;;4.35;;
40471;SDS011;26174;42.908;23.800;2022-08-25T10:18:25;24.15;;;4.47;;
40471;SDS011;26174;42.908;23.800;2022-08-25T10:21:11;26.83;;;4.78;;
40471;SDS011;26174;42.908;23.800;2022-08-25T10:23:46;18.58;;;3.65;;
40471;SDS011;26174;42.908;23.800;2022-08-25T10:34:24;16.45;;;4.20;;
40471;SDS011;26174;42.908;23.800;2022-08-25T10:39:41;22.00;;;4.70;;
40471;SDS011;26174;42.908;23.800;2022-08-25T10:53:04;14.85;;;4.07;;
40471;SDS011;26174;42.908;23.800;2022-08-25T11:01:24;13.15;;;3.95;;
40471;SDS011;26174;42.908;23.800;2022-08-25T11:04:04;14.23;;;4.07;;
40471;SDS011;26174;42.908;23.800;2022-08-25T11:06:43;23.45;;;4.47;;
40471;SDS011;26174;42.908;23.800;2022-08-25T11:09:29;17.58;;;3.97;;
40471;SDS011;26174;42.908;23.800;2022-08-25T11:14:59;23.00;;;4.50;;
40471;SDS011;26174;42.908;23.800;2022-08-25T11:20:32;13.40;;;3.67;;
40471;SDS011;26174;42.908;23.800;2022-08-25T11:25:45;15.38;;;3.72;;
40471;SDS011;26174;42.908;23.800;2022-08-25T11:28:17;23.35;;;4.15;;
40471;SDS011;26174;42.908;23.800;2022-08-25T11:30:55;9.60;;;3.53;;
40471;SDS011;26174;42.908;23.800;2022-08-25T11:33:22;14.68;;;3.50;;
40471;SDS011;26174;42.908;23.800;2022-08-25T11:35:49;18.40;;;7.55;;
40471;SDS011;26174;42.908;23.800;2022-08-25T11:38:53;19.58;;;4.90;;
40471;SDS011;26174;42.908;23.800;2022-08-25T11:49:58;19.10;;;3.45;;
40471;SDS011;26174;42.908;23.800;2022-08-25T11:57:50;19.67;;;4.30;;
40471;SDS011;26174;42.908;23.800;2022-08-25T12:06:15;17.17;;;3.50;;
40471;SDS011;26174;42.908;23.800;2022-08-25T12:25:00;21.25;;;11.50;;
40471;SDS011;26174;42.908;23.800;2022-08-25T12:30:26;30.05;;;6.50;;
40471;SDS011;26174;42.908;23.800;2022-08-25T12:35:38;19.77;;;3.95;;
40471;SDS011;26174;42.908;23.800;2022-08-25T12:40:32;16.92;;;6.00;;
40471;SDS011;26174;42.908;23.800;2022-08-25T12:51:18;19.67;;;4.65;;
40471;SDS011;26174;42.908;23.800;2022-08-25T12:59:16;15.93;;;4.20;;
40471;SDS011;26174;42.908;23.800;2022-08-25T13:01:54;16.88;;;3.60;;
40471;SDS011;26174;42.908;23.800;2022-08-25T13:12:46;37.13;;;19.65;;
40471;SDS011;26174;42.908;23.800;2022-08-25T13:15:31;16.35;;;5.80;;
40471;SDS011;26174;42.908;23.800;2022-08-25T13:20:47;19.45;;;3.97;;
40471;SDS011;26174;42.908;23.800;2022-08-25T13:23:16;22.65;;;4.10;;
40471;SDS011;26174;42.908;23.800;2022-08-25T13:25:48;22.92;;;6.05;;
40471;SDS011;26174;42.908;23.800;2022-08-25T13:28:20;15.60;;;4.50;;
40471;SDS011;26174;42.908;23.800;2022-08-25T13:30:54;20.10;;;4.03;;
40471;SDS011;26174;42.908;23.800;2022-08-25T13:33:25;22.00;;;4.13;;
40471;SDS011;26174;42.908;23.800;2022-08-25T13:35:55;22.17;;;5.30;;
40471;SDS011;26174;42.908;23.800;2022-08-25T13:38:40;15.60;;;3.85;;
40471;SDS011;26174;42.908;23.800;2022-08-25T13:41:07;9.93;;;3.83;;
40471;SDS011;26174;42.908;23.800;2022-08-25T13:43:34;19.35;;;4.47;;
40471;SDS011;26174;42.908;23.800;2022-08-25T13:46:00;23.90;;;4.97;;
40471;SDS011;26174;42.908;23.800;2022-08-25T13:48:34;22.98;;;5.15;;
40471;SDS011;26174;42.908;23.800;2022-08-25T13:51:05;34.45;;;13.13;;
40471;SDS011;26174;42.908;23.800;2022-08-25T13:53:32;18.90;;;5.95;;
40471;SDS011;26174;42.908;23.800;2022-08-25T13:55:59;21.45;;;4.35;;
40471;SDS011;26174;42.908;23.800;2022-08-25T13:58:27;25.05;;;4.03;;
40471;SDS011;26174;42.908;23.800;2022-08-25T14:03:37;18.13;;;4.32;;
40471;SDS011;26174;42.908;23.800;2022-08-25T14:08:43;29.50;;;4.55;;
40471;SDS011;26174;42.908;23.800;2022-08-25T14:11:23;18.73;;;3.92;;
40471;SDS011;26174;42.908;23.800;2022-08-25T14:14:37;22.85;;;4.43;;
40471;SDS011;26174;42.908;23.800;2022-08-25T14:19:26;25.02;;;4.40;;
40471;SDS011;26174;42.908;23.800;2022-08-25T14:21:52;28.55;;;7.25;;
40471;SDS011;26174;42.908;23.800;2022-08-25T14:24:20;14.52;;;5.18;;
40471;SDS011;26174;42.908;23.800;2022-08-25T14:26:47;16.33;;;5.15;;
40471;SDS011;26174;42.908;23.800;2022-08-25T14:29:13;13.45;;;4.50;;
40471;SDS011;26174;42.908;23.800;2022-08-25T14:31:41;20.05;;;5.22;;
40471;SDS011;26174;42.908;23.800;2022-08-25T14:34:09;21.23;;;4.32;;
40471;SDS011;26174;42.908;23.800;2022-08-25T14:36:38;19.80;;;3.88;;
40471;SDS011;26174;42.908;23.800;2022-08-25T14:39:03;14.07;;;3.28;;
40471;SDS011;26174;42.908;23.800;2022-08-25T14:41:30;11.48;;;3.33;;
40471;SDS011;26174;42.908;23.800;2022-08-25T14:43:58;15.07;;;3.90;;
40471;SDS011;26174;42.908;23.800;2022-08-25T14:46:24;17.00;;;4.78;;
40471;SDS011;26174;42.908;23.800;2022-08-25T14:48:53;59.80;;;17.58;;
40471;SDS011;26174;42.908;23.800;2022-08-25T14:51:22;22.55;;;5.28;;
40471;SDS011;26174;42.908;23.800;2022-08-25T14:53:48;40.58;;;11.13;;
40471;SDS011;26174;42.908;23.800;2022-08-25T14:56:14;187.18;;;54.38;;
40471;SDS011;26174;42.908;23.800;2022-08-25T14:58:40;34.88;;;11.07;;
40471;SDS011;26174;42.908;23.800;2022-08-25T15:01:10;28.20;;;8.23;;
40471;SDS011;26174;42.908;23.800;2022-08-25T15:03:37;58.67;;;19.27;;
40471;SDS011;26174;42.908;23.800;2022-08-25T15:06:05;18.13;;;4.55;;
40471;SDS011;26174;42.908;23.800;2022-08-25T15:08:31;48.25;;;14.02;;
40471;SDS011;26174;42.908;23.800;2022-08-25T15:11:15;26.63;;;8.32;;
40471;SDS011;26174;42.908;23.800;2022-08-25T15:13:41;19.48;;;5.85;;
40471;SDS011;26174;42.908;23.800;2022-08-25T15:16:14;17.15;;;6.97;;
40471;SDS011;26174;42.908;23.800;2022-08-25T15:18:45;19.52;;;6.63;;
40471;SDS011;26174;42.908;23.800;2022-08-25T15:21:10;17.05;;;6.93;;
40471;SDS011;26174;42.908;23.800;2022-08-25T15:23:36;13.68;;;4.45;;
40471;SDS011;26174;42.908;23.800;2022-08-25T15:26:02;48.90;;;24.52;;
40471;SDS011;26174;42.908;23.800;2022-08-25T15:28:28;30.38;;;14.05;;
40471;SDS011;26174;42.908;23.800;2022-08-25T15:30:53;20.05;;;4.70;;
40471;SDS011;26174;42.908;23.800;2022-08-25T15:33:19;17.50;;;5.60;;
40471;SDS011;26174;42.908;23.800;2022-08-25T15:35:46;12.05;;;4.90;;
40471;SDS011;26174;42.908;23.800;2022-08-25T15:38:12;22.45;;;7.15;;
40471;SDS011;26174;42.908;23.800;2022-08-25T15:40:38;15.93;;;4.18;;
40471;SDS011;26174;42.908;23.800;2022-08-25T15:43:04;20.80;;;5.05;;
40471;SDS011;26174;42.908;23.800;2022-08-25T15:45:30;14.52;;;5.25;;
40471;SDS011;26174;42.908;23.800;2022-08-25T15:47:56;21.85;;;6.45;;
40471;SDS011;26174;42.908;23.800;2022-08-25T15:50:21;18.92;;;5.72;;
40471;SDS011;26174;42.908;23.800;2022-08-25T15:52:47;25.85;;;7.22;;
40471;SDS011;26174;42.908;23.800;2022-08-25T15:55:14;21.27;;;5.10;;
40471;SDS011;26174;42.908;23.800;2022-08-25T15:57:40;23.58;;;6.03;;
40471;SDS011;26174;42.908;23.800;2022-08-25T16:00:07;13.88;;;4.05;;
40471;SDS011;26174;42.908;23.800;2022-08-25T16:02:35;13.75;;;4.00;;
40471;SDS011;26174;42.908;23.800;2022-08-25T16:05:01;19.02;;;5.00;;
40471;SDS011;26174;42.908;23.800;2022-08-25T16:07:27;13.57;;;3.85;;
40471;SDS011;26174;42.908;23.800;2022-08-25T16:09:56;18.98;;;4.50;;
40471;SDS011;26174;42.908;23.800;2022-08-25T16:12:22;19.67;;;4.65;;
40471;SDS011;26174;42.908;23.800;2022-08-25T16:14:48;9.93;;;4.45;;
40471;SDS011;26174;42.908;23.800;2022-08-25T16:17:14;17.52;;;4.57;;
40471;SDS011;26174;42.908;23.800;2022-08-25T16:19:40;22.98;;;4.82;;
40471;SDS011;26174;42.908;23.800;2022-08-25T16:22:05;29.65;;;5.65;;
40471;SDS011;26174;42.908;23.800;2022-08-25T16:24:31;14.70;;;4.13;;
40471;SDS011;26174;42.908;23.800;2022-08-25T16:26:57;24.17;;;4.38;;
40471;SDS011;26174;42.908;23.800;2022-08-25T16:29:30;27.40;;;5.00;;
40471;SDS011;26174;42.908;23.800;2022-08-25T16:31:57;18.95;;;5.38;;
40471;SDS011;26174;42.908;23.800;2022-08-25T16:34:23;28.38;;;15.07;;
40471;SDS011;26174;42.908;23.800;2022-08-25T16:36:49;25.50;;;6.00;;
40471;SDS011;26174;42.908;23.800;2022-08-25T16:39:14;15.07;;;4.72;;
40471;SDS011;26174;42.908;23.800;2022-08-25T16:41:40;24.40;;;4.88;;
40471;SDS011;26174;42.908;23.800;2022-08-25T16:44:05;15.10;;;4.47;;
40471;SDS011;26174;42.908;23.800;2022-08-25T16:46:32;24.38;;;6.65;;
40471;SDS011;26174;42.908;23.800;2022-08-25T16:49:01;23.05;;;5.15;;
40471;SDS011;26174;42.908;23.800;2022-08-25T16:51:28;29.67;;;7.43;;
40471;SDS011;26174;42.908;23.800;2022-08-25T16:53:54;19.38;;;4.97;;
40471;SDS011;26174;42.908;23.800;2022-08-25T16:56:38;15.38;;;4.63;;
40471;SDS011;26174;42.908;23.800;2022-08-25T16:59:06;21.65;;;5.28;;
40471;SDS011;26174;42.908;23.800;2022-08-25T17:01:33;14.38;;;4.70;;
40471;SDS011;26174;42.908;23.800;2022-08-25T17:03:59;20.67;;;4.88;;
40471;SDS011;26174;42.908;23.800;2022-08-25T17:06:26;22.00;;;6.97;;
40471;SDS011;26174;42.908;23.800;2022-08-25T17:08:53;31.92;;;12.90;;